sensor_id;sensor_type;location;lat;lon;timestamp;pressure;altitude;pressure_sealevel;temperature;humidity
48968;BME280;46511;53.148;8.204;2022-10-16T00:00:23;100883.97;;;14.39;99.74
48968;BME280;46511;53.148;8.204;2022-10-16T00:02:54;100888.03;;;14.44;100.00
48968;BME280;46511;53.148;8.204;2022-10-16T00:05:27;100883.84;;;14.78;97.49
48968;BME280;46511;53.148;8.204;2022-10-16T00:07:58;100886.44;;;14.54;98.20
48968;BME280;46511;53.148;8.204;2022-10-16T00:10:29;100899.16;;;14.64;97.35
48968;BME280;46511;53.148;8.204;2022-10-16T00:13:01;100898.44;;;14.85;96.07
48968;BME280;46511;53.148;8.204;2022-10-16T00:15:33;100909.00;;;14.63;97.41
48968;BME280;46511;53.148;8.204;2022-10-16T00:18:07;100893.19;;;14.47;97.76
48968;BME280;46511;53.148;8.204;2022-10-16T00:20:38;100894.44;;;14.29;100.00
48968;BME280;46511;53.148;8.204;2022-10-16T00:23:09;100891.25;;;14.37;99.21
48968;BME280;46511;53.148;8.204;2022-10-16T00:25:41;100898.09;;;14.41;98.89
48968;BME280;46511;53.148;8.204;2022-10-16T00:28:12;100900.66;;;14.29;98.62
48968;BME280;46511;53.148;8.204;2022-10-16T00:30:44;100908.16;;;14.63;97.08
48968;BME280;46511;53.148;8.204;2022-10-16T00:33:15;100902.47;;;14.16;99.65
48968;BME280;46511;53.148;8.204;2022-10-16T00:35:46;100904.06;;;14.19;99.46
48968;BME280;46511;53.148;8.204;2022-10-16T00:38:18;100902.47;;;14.29;98.96
48968;BME280;46511;53.148;8.204;2022-10-16T00:40:49;100904.28;;;14.28;98.17
48968;BME280;46511;53.148;8.204;2022-10-16T00:46:13;100909.66;;;14.16;98.71
48968;BME280;46511;53.148;8.204;2022-10-16T00:48:50;100919.19;;;14.45;97.36
48968;BME280;46511;53.148;8.204;2022-10-16T00:51:28;100913.28;;;14.53;96.12
48968;BME280;46511;53.148;8.204;2022-10-16T00:54:04;100913.69;;;14.34;97.07
48968;BME280;46511;53.148;8.204;2022-10-16T00:56:41;100915.44;;;14.61;95.79
48968;BME280;46511;53.148;8.204;2022-10-16T00:59:24;100916.47;;;14.20;98.58
48968;BME280;46511;53.148;8.204;2022-10-16T01:01:57;100907.16;;;14.38;96.92
48968;BME280;46511;53.148;8.204;2022-10-16T01:04:37;100899.91;;;14.15;99.23
48968;BME280;46511;53.148;8.204;2022-10-16T01:07:16;100899.72;;;14.05;99.40
48968;BME280;46511;53.148;8.204;2022-10-16T01:13:01;100893.59;;;13.90;100.00
48968;BME280;46511;53.148;8.204;2022-10-16T01:15:37;100894.03;;;14.35;97.30
48968;BME280;46511;53.148;8.204;2022-10-16T01:18:18;100903.31;;;13.91;99.77
48968;BME280;46511;53.148;8.204;2022-10-16T01:21:04;100893.19;;;14.22;98.53
48968;BME280;46511;53.148;8.204;2022-10-16T01:29:32;100909.88;;;14.13;98.71
48968;BME280;46511;53.148;8.204;2022-10-16T01:32:13;100903.66;;;14.12;98.75
48968;BME280;46511;53.148;8.204;2022-10-16T01:38:21;100900.44;;;14.07;99.07
48968;BME280;46511;53.148;8.204;2022-10-16T01:40:58;100899.81;;;14.16;98.56
48968;BME280;46511;53.148;8.204;2022-10-16T01:43:35;100906.00;;;14.17;98.21
48968;BME280;46511;53.148;8.204;2022-10-16T01:46:11;100909.75;;;14.14;97.51
48968;BME280;46511;53.148;8.204;2022-10-16T01:48:47;100906.75;;;14.19;98.06
48968;BME280;46511;53.148;8.204;2022-10-16T01:51:19;100911.13;;;14.20;97.86
48968;BME280;46511;53.148;8.204;2022-10-16T01:53:53;100914.44;;;13.98;98.66
48968;BME280;46511;53.148;8.204;2022-10-16T01:56:28;100914.75;;;14.19;98.36
48968;BME280;46511;53.148;8.204;2022-10-16T01:59:01;100913.28;;;14.15;98.60
48968;BME280;46511;53.148;8.204;2022-10-16T02:01:37;100923.75;;;14.05;98.52
48968;BME280;46511;53.148;8.204;2022-10-16T02:05:13;100921.81;;;14.20;98.02
48968;BME280;46511;53.148;8.204;2022-10-16T02:07:14;100921.47;;;14.12;98.42
48968;BME280;46511;53.148;8.204;2022-10-16T02:09:47;100923.88;;;14.54;96.07
48968;BME280;46511;53.148;8.204;2022-10-16T02:12:23;100921.38;;;14.39;95.94
48968;BME280;46511;53.148;8.204;2022-10-16T02:14:58;100922.13;;;14.28;96.96
48968;BME280;46511;53.148;8.204;2022-10-16T02:17:30;100917.97;;;14.37;96.45
48968;BME280;46511;53.148;8.204;2022-10-16T02:20:01;100920.56;;;14.13;97.40
48968;BME280;46511;53.148;8.204;2022-10-16T02:22:42;100918.22;;;14.46;95.95
48968;BME280;46511;53.148;8.204;2022-10-16T02:25:27;100927.81;;;14.23;96.62
48968;BME280;46511;53.148;8.204;2022-10-16T02:28:09;100915.06;;;14.40;95.53
48968;BME280;46511;53.148;8.204;2022-10-16T02:30:52;100914.56;;;14.22;96.61
48968;BME280;46511;53.148;8.204;2022-10-16T02:33:29;100918.63;;;14.15;96.96
48968;BME280;46511;53.148;8.204;2022-10-16T02:36:02;100911.75;;;14.11;97.13
48968;BME280;46511;53.148;8.204;2022-10-16T02:38:33;100905.38;;;14.51;94.86
48968;BME280;46511;53.148;8.204;2022-10-16T02:41:07;100912.00;;;14.33;95.38
48968;BME280;46511;53.148;8.204;2022-10-16T02:43:39;100901.50;;;14.30;95.70
48968;BME280;46511;53.148;8.204;2022-10-16T02:46:10;100907.63;;;14.32;95.17
48968;BME280;46511;53.148;8.204;2022-10-16T02:48:42;100905.16;;;14.54;93.87
48968;BME280;46511;53.148;8.204;2022-10-16T02:51:13;100909.22;;;14.47;94.01
48968;BME280;46511;53.148;8.204;2022-10-16T02:53:44;100904.94;;;14.32;94.66
48968;BME280;46511;53.148;8.204;2022-10-16T02:56:16;100905.91;;;14.18;95.84
48968;BME280;46511;53.148;8.204;2022-10-16T02:58:47;100905.03;;;14.18;96.13
48968;BME280;46511;53.148;8.204;2022-10-16T03:01:18;100909.00;;;14.12;95.85
48968;BME280;46511;53.148;8.204;2022-10-16T03:03:49;100917.97;;;14.24;95.66
48968;BME280;46511;53.148;8.204;2022-10-16T03:06:21;100922.03;;;14.17;95.46
48968;BME280;46511;53.148;8.204;2022-10-16T03:08:52;100919.25;;;14.44;94.20
48968;BME280;46511;53.148;8.204;2022-10-16T03:11:23;100923.53;;;14.08;95.37
48968;BME280;46511;53.148;8.204;2022-10-16T03:13:55;100917.97;;;13.86;97.58
48968;BME280;46511;53.148;8.204;2022-10-16T03:16:26;100919.47;;;14.03;96.52
48968;BME280;46511;53.148;8.204;2022-10-16T03:18:57;100909.44;;;13.93;97.35
48968;BME280;46511;53.148;8.204;2022-10-16T03:21:28;100911.69;;;14.25;95.39
48968;BME280;46511;53.148;8.204;2022-10-16T03:24:00;100920.13;;;14.06;96.57
48968;BME280;46511;53.148;8.204;2022-10-16T03:26:31;100916.13;;;13.86;97.70
48968;BME280;46511;53.148;8.204;2022-10-16T03:29:03;100915.41;;;13.84;97.21
48968;BME280;46511;53.148;8.204;2022-10-16T03:31:34;100917.28;;;13.82;98.20
48968;BME280;46511;53.148;8.204;2022-10-16T03:34:05;100916.25;;;13.97;97.18
48968;BME280;46511;53.148;8.204;2022-10-16T03:36:37;100915.19;;;14.00;96.73
48968;BME280;46511;53.148;8.204;2022-10-16T03:39:08;100923.31;;;13.98;97.11
48968;BME280;46511;53.148;8.204;2022-10-16T03:41:39;100920.31;;;14.28;96.03
48968;BME280;46511;53.148;8.204;2022-10-16T03:44:10;100924.19;;;14.24;96.08
48968;BME280;46511;53.148;8.204;2022-10-16T03:46:42;100938.47;;;14.11;96.26
48968;BME280;46511;53.148;8.204;2022-10-16T03:49:13;100933.38;;;14.33;95.77
48968;BME280;46511;53.148;8.204;2022-10-16T03:51:44;100940.66;;;14.31;96.39
48968;BME280;46511;53.148;8.204;2022-10-16T03:54:16;100945.97;;;14.18;96.84
48968;BME280;46511;53.148;8.204;2022-10-16T03:56:47;100937.88;;;14.45;96.09
48968;BME280;46511;53.148;8.204;2022-10-16T03:59:18;100944.25;;;14.30;96.81
48968;BME280;46511;53.148;8.204;2022-10-16T04:01:50;100944.19;;;14.32;97.02
48968;BME280;46511;53.148;8.204;2022-10-16T04:04:21;100948.34;;;14.74;94.80
48968;BME280;46511;53.148;8.204;2022-10-16T04:06:52;100958.72;;;14.66;94.57
48968;BME280;46511;53.148;8.204;2022-10-16T04:09:23;100963.75;;;14.70;94.88
48968;BME280;46511;53.148;8.204;2022-10-16T04:11:55;100971.19;;;14.78;93.96
48968;BME280;46511;53.148;8.204;2022-10-16T04:14:26;100965.84;;;14.91;94.10
48968;BME280;46511;53.148;8.204;2022-10-16T04:16:57;100962.25;;;14.79;95.23
48968;BME280;46511;53.148;8.204;2022-10-16T04:19:28;100961.06;;;14.57;97.69
48968;BME280;46511;53.148;8.204;2022-10-16T04:22:00;100976.97;;;14.97;94.72
48968;BME280;46511;53.148;8.204;2022-10-16T04:24:31;100961.06;;;15.20;92.50
48968;BME280;46511;53.148;8.204;2022-10-16T04:27:02;100963.59;;;14.84;95.66
48968;BME280;46511;53.148;8.204;2022-10-16T04:29:34;100955.78;;;14.94;94.20
48968;BME280;46511;53.148;8.204;2022-10-16T04:32:06;100963.41;;;14.75;96.32
48968;BME280;46511;53.148;8.204;2022-10-16T04:34:39;100958.69;;;14.91;95.14
48968;BME280;46511;53.148;8.204;2022-10-16T04:37:11;100960.63;;;14.89;95.96
48968;BME280;46511;53.148;8.204;2022-10-16T04:39:42;100958.06;;;14.75;96.35
48968;BME280;46511;53.148;8.204;2022-10-16T04:42:13;100965.94;;;15.02;95.65
48968;BME280;46511;53.148;8.204;2022-10-16T04:44:45;100955.63;;;14.72;97.37
48968;BME280;46511;53.148;8.204;2022-10-16T04:47:16;100967.00;;;14.99;95.81
48968;BME280;46511;53.148;8.204;2022-10-16T04:49:47;100971.34;;;15.26;93.67
48968;BME280;46511;53.148;8.204;2022-10-16T04:52:19;100983.72;;;14.90;96.12
48968;BME280;46511;53.148;8.204;2022-10-16T04:54:52;100983.22;;;15.22;94.15
48968;BME280;46511;53.148;8.204;2022-10-16T04:57:24;100988.50;;;15.10;94.42
48968;BME280;46511;53.148;8.204;2022-10-16T04:59:56;101001.72;;;14.88;96.65
48968;BME280;46511;53.148;8.204;2022-10-16T05:02:27;101004.22;;;15.02;96.12
48968;BME280;46511;53.148;8.204;2022-10-16T05:04:58;100989.38;;;14.98;97.01
48968;BME280;46511;53.148;8.204;2022-10-16T05:07:30;100993.25;;;14.81;98.66
48968;BME280;46511;53.148;8.204;2022-10-16T05:10:01;100996.28;;;14.51;100.00
48968;BME280;46511;53.148;8.204;2022-10-16T05:12:33;101000.53;;;14.67;99.56
48968;BME280;46511;53.148;8.204;2022-10-16T05:15:05;100997.44;;;14.73;100.00
48968;BME280;46511;53.148;8.204;2022-10-16T05:17:36;100994.63;;;15.00;98.28
48968;BME280;46511;53.148;8.204;2022-10-16T05:20:07;100994.34;;;14.79;99.99
48968;BME280;46511;53.148;8.204;2022-10-16T05:22:39;100996.47;;;14.48;100.00
48968;BME280;46511;53.148;8.204;2022-10-16T05:25:10;101000.19;;;14.58;100.00
48968;BME280;46511;53.148;8.204;2022-10-16T05:27:41;100989.22;;;14.50;100.00
48968;BME280;46511;53.148;8.204;2022-10-16T05:30:13;100988.34;;;14.63;100.00
48968;BME280;46511;53.148;8.204;2022-10-16T05:32:47;100993.94;;;14.60;100.00
48968;BME280;46511;53.148;8.204;2022-10-16T05:35:19;100997.34;;;14.62;100.00
48968;BME280;46511;53.148;8.204;2022-10-16T05:37:46;100994.63;;;14.87;100.00
48968;BME280;46511;53.148;8.204;2022-10-16T05:40:18;100991.72;;;14.39;100.00
48968;BME280;46511;53.148;8.204;2022-10-16T05:42:49;101003.59;;;14.86;100.00
48968;BME280;46511;53.148;8.204;2022-10-16T05:45:20;101012.50;;;14.74;100.00
48968;BME280;46511;53.148;8.204;2022-10-16T05:47:52;101011.78;;;14.72;100.00
48968;BME280;46511;53.148;8.204;2022-10-16T05:50:23;101009.50;;;14.40;100.00
48968;BME280;46511;53.148;8.204;2022-10-16T05:52:54;101025.56;;;14.78;100.00
48968;BME280;46511;53.148;8.204;2022-10-16T05:55:25;101025.88;;;14.74;100.00
48968;BME280;46511;53.148;8.204;2022-10-16T05:57:57;101035.19;;;14.55;100.00
48968;BME280;46511;53.148;8.204;2022-10-16T06:00:28;101037.94;;;14.41;100.00
48968;BME280;46511;53.148;8.204;2022-10-16T06:02:59;101042.91;;;14.73;100.00
48968;BME280;46511;53.148;8.204;2022-10-16T06:05:30;101045.78;;;14.70;100.00
48968;BME280;46511;53.148;8.204;2022-10-16T06:08:02;101043.28;;;14.41;100.00
48968;BME280;46511;53.148;8.204;2022-10-16T06:10:33;101036.69;;;14.60;100.00
48968;BME280;46511;53.148;8.204;2022-10-16T06:13:04;101039.53;;;14.44;100.00
48968;BME280;46511;53.148;8.204;2022-10-16T06:15:35;101037.13;;;14.53;100.00
48968;BME280;46511;53.148;8.204;2022-10-16T06:18:07;101046.28;;;14.49;100.00
48968;BME280;46511;53.148;8.204;2022-10-16T06:20:39;101045.00;;;14.42;100.00
48968;BME280;46511;53.148;8.204;2022-10-16T06:23:10;101044.91;;;14.56;100.00
48968;BME280;46511;53.148;8.204;2022-10-16T06:25:42;101044.72;;;14.60;100.00
48968;BME280;46511;53.148;8.204;2022-10-16T06:28:13;101054.66;;;14.70;100.00
48968;BME280;46511;53.148;8.204;2022-10-16T06:30:45;101056.16;;;14.62;100.00
48968;BME280;46511;53.148;8.204;2022-10-16T06:33:16;101061.03;;;15.06;100.00
48968;BME280;46511;53.148;8.204;2022-10-16T06:35:48;101064.47;;;14.57;100.00
48968;BME280;46511;53.148;8.204;2022-10-16T06:38:19;101070.25;;;15.02;100.00
48968;BME280;46511;53.148;8.204;2022-10-16T06:40:50;101075.41;;;14.67;100.00
48968;BME280;46511;53.148;8.204;2022-10-16T06:43:21;101077.44;;;15.01;100.00
48968;BME280;46511;53.148;8.204;2022-10-16T06:45:53;101077.66;;;14.98;100.00
48968;BME280;46511;53.148;8.204;2022-10-16T06:48:25;101089.94;;;15.13;100.00
48968;BME280;46511;53.148;8.204;2022-10-16T06:53:34;101095.38;;;15.25;99.47
48968;BME280;46511;53.148;8.204;2022-10-16T06:56:10;101100.03;;;15.10;99.45
48968;BME280;46511;53.148;8.204;2022-10-16T06:58:43;101094.44;;;15.13;100.00
48968;BME280;46511;53.148;8.204;2022-10-16T07:01:15;101102.16;;;15.05;99.96
48968;BME280;46511;53.148;8.204;2022-10-16T07:03:48;101116.06;;;15.35;98.43
48968;BME280;46511;53.148;8.204;2022-10-16T07:06:20;101104.09;;;14.90;100.00
48968;BME280;46511;53.148;8.204;2022-10-16T07:08:53;101111.56;;;15.36;98.09
48968;BME280;46511;53.148;8.204;2022-10-16T07:11:24;101123.09;;;15.62;96.56
48968;BME280;46511;53.148;8.204;2022-10-16T07:13:56;101110.97;;;15.56;95.65
48968;BME280;46511;53.148;8.204;2022-10-16T07:16:28;101115.59;;;15.67;95.55
48968;BME280;46511;53.148;8.204;2022-10-16T07:19:01;101119.19;;;15.79;95.71
48968;BME280;46511;53.148;8.204;2022-10-16T07:21:34;101129.81;;;15.67;94.88
48968;BME280;46511;53.148;8.204;2022-10-16T07:24:12;101127.75;;;15.84;94.40
48968;BME280;46511;53.148;8.204;2022-10-16T07:26:45;101125.28;;;16.88;88.07
48968;BME280;46511;53.148;8.204;2022-10-16T07:29:18;101132.50;;;15.55;94.99
48968;BME280;46511;53.148;8.204;2022-10-16T07:31:51;101136.59;;;15.60;95.22
48968;BME280;46511;53.148;8.204;2022-10-16T07:34:22;101139.41;;;16.54;90.22
48968;BME280;46511;53.148;8.204;2022-10-16T07:36:53;101147.13;;;16.94;87.15
48968;BME280;46511;53.148;8.204;2022-10-16T07:39:25;101145.47;;;16.45;87.93
48968;BME280;46511;53.148;8.204;2022-10-16T07:41:56;101148.97;;;17.61;83.90
48968;BME280;46511;53.148;8.204;2022-10-16T07:44:27;101156.44;;;17.57;82.65
48968;BME280;46511;53.148;8.204;2022-10-16T07:46:59;101163.16;;;17.29;84.01
48968;BME280;46511;53.148;8.204;2022-10-16T07:49:30;101165.84;;;17.18;84.46
48968;BME280;46511;53.148;8.204;2022-10-16T07:52:01;101170.09;;;17.43;82.42
48968;BME280;46511;53.148;8.204;2022-10-16T07:54:32;101179.59;;;17.13;83.36
48968;BME280;46511;53.148;8.204;2022-10-16T07:57:04;101183.97;;;17.03;84.34
48968;BME280;46511;53.148;8.204;2022-10-16T07:59:35;101179.66;;;18.35;77.51
48968;BME280;46511;53.148;8.204;2022-10-16T08:02:07;101173.47;;;18.23;76.88
48968;BME280;46511;53.148;8.204;2022-10-16T08:04:38;101187.09;;;17.66;79.04
48968;BME280;46511;53.148;8.204;2022-10-16T08:07:09;101202.06;;;18.56;75.75
48968;BME280;46511;53.148;8.204;2022-10-16T08:09:40;101200.91;;;19.02;73.53
48968;BME280;46511;53.148;8.204;2022-10-16T08:12:12;101194.34;;;19.37;70.26
48968;BME280;46511;53.148;8.204;2022-10-16T08:14:43;101193.81;;;19.74;68.93
48968;BME280;46511;53.148;8.204;2022-10-16T08:17:14;101203.22;;;20.39;65.46
48968;BME280;46511;53.148;8.204;2022-10-16T08:19:46;101200.28;;;19.92;67.71
48968;BME280;46511;53.148;8.204;2022-10-16T08:22:18;101194.94;;;19.50;68.28
48968;BME280;46511;53.148;8.204;2022-10-16T08:24:49;101196.81;;;18.23;74.87
48968;BME280;46511;53.148;8.204;2022-10-16T08:27:20;101192.25;;;19.20;70.87
48968;BME280;46511;53.148;8.204;2022-10-16T08:29:52;101199.53;;;19.29;70.10
48968;BME280;46511;53.148;8.204;2022-10-16T08:32:23;101201.75;;;20.15;65.53
48968;BME280;46511;53.148;8.204;2022-10-16T08:34:54;101207.47;;;19.82;66.25
48968;BME280;46511;53.148;8.204;2022-10-16T08:37:29;101211.53;;;18.83;71.12
48968;BME280;46511;53.148;8.204;2022-10-16T08:40:02;101212.72;;;19.32;70.60
48968;BME280;46511;53.148;8.204;2022-10-16T08:45:32;101214.72;;;18.88;70.29
48968;BME280;46511;53.148;8.204;2022-10-16T08:48:20;101220.03;;;20.52;64.77
48968;BME280;46511;53.148;8.204;2022-10-16T08:51:24;101230.91;;;20.41;64.52
48968;BME280;46511;53.148;8.204;2022-10-16T08:54:03;101229.28;;;19.48;68.09
48968;BME280;46511;53.148;8.204;2022-10-16T08:56:46;101244.19;;;18.46;72.90
48968;BME280;46511;53.148;8.204;2022-10-16T08:59:18;101221.97;;;18.33;74.23
48968;BME280;46511;53.148;8.204;2022-10-16T09:01:50;101234.13;;;18.60;74.09
48968;BME280;46511;53.148;8.204;2022-10-16T09:07:20;101239.25;;;18.63;72.72
48968;BME280;46511;53.148;8.204;2022-10-16T09:10:13;101248.41;;;19.45;68.99
48968;BME280;46511;53.148;8.204;2022-10-16T09:15:40;101254.91;;;19.94;67.66
48968;BME280;46511;53.148;8.204;2022-10-16T09:18:30;101257.50;;;20.05;66.37
48968;BME280;46511;53.148;8.204;2022-10-16T09:21:26;101252.94;;;19.65;67.86
48968;BME280;46511;53.148;8.204;2022-10-16T09:24:08;101265.56;;;19.95;66.52
48968;BME280;46511;53.148;8.204;2022-10-16T09:26:46;101261.63;;;19.06;70.40
48968;BME280;46511;53.148;8.204;2022-10-16T09:29:19;101259.00;;;20.29;64.48
48968;BME280;46511;53.148;8.204;2022-10-16T09:31:52;101274.88;;;21.20;60.53
48968;BME280;46511;53.148;8.204;2022-10-16T09:34:32;101265.47;;;21.53;60.39
48968;BME280;46511;53.148;8.204;2022-10-16T09:37:10;101270.06;;;21.33;60.17
48968;BME280;46511;53.148;8.204;2022-10-16T09:39:45;101272.72;;;21.62;58.38
48968;BME280;46511;53.148;8.204;2022-10-16T09:42:18;101272.72;;;22.00;55.92
48968;BME280;46511;53.148;8.204;2022-10-16T09:44:53;101266.94;;;22.22;54.62
48968;BME280;46511;53.148;8.204;2022-10-16T09:47:25;101284.75;;;22.42;54.33
48968;BME280;46511;53.148;8.204;2022-10-16T09:50:05;101294.41;;;21.90;55.15
48968;BME280;46511;53.148;8.204;2022-10-16T09:52:50;101286.78;;;22.13;55.83
48968;BME280;46511;53.148;8.204;2022-10-16T09:55:21;101292.72;;;22.16;55.38
48968;BME280;46511;53.148;8.204;2022-10-16T09:57:53;101307.16;;;23.07;52.35
48968;BME280;46511;53.148;8.204;2022-10-16T10:00:25;101309.38;;;22.49;53.39
48968;BME280;46511;53.148;8.204;2022-10-16T10:02:57;101320.94;;;23.32;50.13
48968;BME280;46511;53.148;8.204;2022-10-16T10:05:28;101318.34;;;23.30;50.62
48968;BME280;46511;53.148;8.204;2022-10-16T10:08:00;101302.41;;;22.92;51.48
48968;BME280;46511;53.148;8.204;2022-10-16T10:10:39;101314.25;;;23.08;50.41
48968;BME280;46511;53.148;8.204;2022-10-16T10:13:17;101300.03;;;23.06;50.70
48968;BME280;46511;53.148;8.204;2022-10-16T10:15:51;101313.09;;;26.53;41.31
48968;BME280;46511;53.148;8.204;2022-10-16T10:18:23;101314.13;;;27.51;40.49
48968;BME280;46511;53.148;8.204;2022-10-16T10:20:58;101331.44;;;27.81;37.90
48968;BME280;46511;53.148;8.204;2022-10-16T10:23:31;101324.44;;;26.95;38.48
48968;BME280;46511;53.148;8.204;2022-10-16T10:31:27;101332.91;;;29.79;34.62
48968;BME280;46511;53.148;8.204;2022-10-16T10:36:47;101330.97;;;34.85;27.87
48968;BME280;46511;53.148;8.204;2022-10-16T10:39:28;101333.13;;;36.66;25.02
48968;BME280;46511;53.148;8.204;2022-10-16T10:45:00;101324.13;;;34.58;26.07
48968;BME280;46511;53.148;8.204;2022-10-16T10:47:53;101329.53;;;35.25;24.87
48968;BME280;46511;53.148;8.204;2022-10-16T10:53:40;101346.56;;;35.52;23.25
48968;BME280;46511;53.148;8.204;2022-10-16T10:59:22;101333.69;;;33.57;26.49
48968;BME280;46511;53.148;8.204;2022-10-16T11:05:24;101331.28;;;33.86;25.20
48968;BME280;46511;53.148;8.204;2022-10-16T11:08:07;101364.31;;;33.92;24.66
48968;BME280;46511;53.148;8.204;2022-10-16T11:10:49;101340.78;;;34.33;24.80
48968;BME280;46511;53.148;8.204;2022-10-16T11:13:36;101335.88;;;35.13;23.55
48968;BME280;46511;53.148;8.204;2022-10-16T11:16:26;101338.41;;;35.57;22.58
48968;BME280;46511;53.148;8.204;2022-10-16T11:19:08;101358.00;;;34.28;23.28
48968;BME280;46511;53.148;8.204;2022-10-16T11:21:47;101353.19;;;36.09;22.18
48968;BME280;46511;53.148;8.204;2022-10-16T11:27:07;101355.06;;;37.41;21.04
48968;BME280;46511;53.148;8.204;2022-10-16T11:29:48;101356.91;;;36.90;21.38
48968;BME280;46511;53.148;8.204;2022-10-16T11:32:34;101355.91;;;37.58;20.59
48968;BME280;46511;53.148;8.204;2022-10-16T11:35:23;101368.91;;;34.60;23.41
48968;BME280;46511;53.148;8.204;2022-10-16T11:38:02;101369.75;;;33.17;24.31
48968;BME280;46511;53.148;8.204;2022-10-16T11:40:45;101389.38;;;29.80;28.40
48968;BME280;46511;53.148;8.204;2022-10-16T11:43:28;101394.53;;;28.01;31.04
48968;BME280;46511;53.148;8.204;2022-10-16T11:46:12;101394.63;;;27.47;32.49
48968;BME280;46511;53.148;8.204;2022-10-16T11:48:50;101397.03;;;27.73;32.15
48968;BME280;46511;53.148;8.204;2022-10-16T11:57:00;101404.78;;;33.35;24.23
48968;BME280;46511;53.148;8.204;2022-10-16T11:59:43;101407.53;;;33.98;23.26
48968;BME280;46511;53.148;8.204;2022-10-16T12:02:28;101384.94;;;35.83;20.86
48968;BME280;46511;53.148;8.204;2022-10-16T12:05:52;101400.81;;;36.58;20.39
48968;BME280;46511;53.148;8.204;2022-10-16T12:08:26;101416.22;;;35.12;20.30
48968;BME280;46511;53.148;8.204;2022-10-16T12:16:56;101437.94;;;32.57;23.52
48968;BME280;46511;53.148;8.204;2022-10-16T12:19:32;101422.03;;;32.73;23.80
48968;BME280;46511;53.148;8.204;2022-10-16T12:22:03;101425.00;;;34.72;21.92
48968;BME280;46511;53.148;8.204;2022-10-16T12:24:36;101420.59;;;35.31;20.85
48968;BME280;46511;53.148;8.204;2022-10-16T12:30:04;101442.28;;;31.94;24.55
48968;BME280;46511;53.148;8.204;2022-10-16T12:32:37;101451.25;;;30.80;25.85
48968;BME280;46511;53.148;8.204;2022-10-16T12:35:24;101461.88;;;29.42;27.33
48968;BME280;46511;53.148;8.204;2022-10-16T12:38:08;101458.81;;;27.43;29.83
48968;BME280;46511;53.148;8.204;2022-10-16T12:41:08;101461.91;;;27.09;30.80
48968;BME280;46511;53.148;8.204;2022-10-16T12:48:46;101465.28;;;32.19;24.26
48968;BME280;46511;53.148;8.204;2022-10-16T12:53:59;101482.81;;;33.67;22.81
48968;BME280;46511;53.148;8.204;2022-10-16T13:05:08;101470.06;;;34.66;20.79
48968;BME280;46511;53.148;8.204;2022-10-16T13:13:38;101470.53;;;35.90;19.48
48968;BME280;46511;53.148;8.204;2022-10-16T13:19:44;101498.91;;;34.70;20.23
48968;BME280;46511;53.148;8.204;2022-10-16T13:28:16;101498.91;;;34.70;20.53
48968;BME280;46511;53.148;8.204;2022-10-16T13:30:53;101505.47;;;34.51;20.67
48968;BME280;46511;53.148;8.204;2022-10-16T13:33:32;101502.38;;;33.08;21.94
48968;BME280;46511;53.148;8.204;2022-10-16T13:36:06;101507.66;;;33.09;22.32
48968;BME280;46511;53.148;8.204;2022-10-16T13:38:51;101523.16;;;32.97;22.20
48968;BME280;46511;53.148;8.204;2022-10-16T13:41:31;101513.09;;;32.45;22.91
48968;BME280;46511;53.148;8.204;2022-10-16T13:44:02;101521.59;;;31.42;23.84
48968;BME280;46511;53.148;8.204;2022-10-16T13:46:36;101527.84;;;31.23;24.54
48968;BME280;46511;53.148;8.204;2022-10-16T13:49:14;101549.19;;;31.82;23.84
48968;BME280;46511;53.148;8.204;2022-10-16T13:51:56;101537.72;;;31.17;24.94
48968;BME280;46511;53.148;8.204;2022-10-16T13:54:29;101536.09;;;31.91;24.65
48968;BME280;46511;53.148;8.204;2022-10-16T13:57:05;101551.75;;;31.90;24.54
48968;BME280;46511;53.148;8.204;2022-10-16T13:59:37;101551.81;;;31.08;24.66
48968;BME280;46511;53.148;8.204;2022-10-16T14:04:53;101549.63;;;31.92;24.22
48968;BME280;46511;53.148;8.204;2022-10-16T14:07:26;101547.13;;;32.63;23.34
48968;BME280;46511;53.148;8.204;2022-10-16T14:10:02;101562.97;;;32.22;23.61
48968;BME280;46511;53.148;8.204;2022-10-16T14:12:36;101550.09;;;32.16;23.63
48968;BME280;46511;53.148;8.204;2022-10-16T14:15:15;101564.50;;;32.64;23.05
48968;BME280;46511;53.148;8.204;2022-10-16T14:17:50;101561.28;;;32.74;23.52
48968;BME280;46511;53.148;8.204;2022-10-16T14:20:24;101562.78;;;32.03;24.19
48968;BME280;46511;53.148;8.204;2022-10-16T14:23:16;101572.72;;;32.18;24.15
48968;BME280;46511;53.148;8.204;2022-10-16T14:25:52;101574.84;;;31.54;24.20
48968;BME280;46511;53.148;8.204;2022-10-16T14:28:23;101577.19;;;30.54;25.26
48968;BME280;46511;53.148;8.204;2022-10-16T14:36:05;101576.16;;;29.91;26.55
48968;BME280;46511;53.148;8.204;2022-10-16T14:38:42;101571.09;;;29.22;27.61
48968;BME280;46511;53.148;8.204;2022-10-16T14:41:22;101577.09;;;27.89;28.73
48968;BME280;46511;53.148;8.204;2022-10-16T14:43:55;101584.13;;;26.97;30.41
48968;BME280;46511;53.148;8.204;2022-10-16T14:46:35;101588.94;;;26.71;30.96
48968;BME280;46511;53.148;8.204;2022-10-16T14:51:40;101586.59;;;25.52;33.38
48968;BME280;46511;53.148;8.204;2022-10-16T14:54:13;101590.84;;;25.13;34.00
48968;BME280;46511;53.148;8.204;2022-10-16T14:56:51;101597.28;;;24.06;35.32
48968;BME280;46511;53.148;8.204;2022-10-16T14:59:29;101596.81;;;23.93;36.30
48968;BME280;46511;53.148;8.204;2022-10-16T15:04:51;101588.69;;;23.38;37.51
48968;BME280;46511;53.148;8.204;2022-10-16T15:07:22;101617.44;;;23.21;38.11
48968;BME280;46511;53.148;8.204;2022-10-16T15:09:54;101626.09;;;22.97;38.80
48968;BME280;46511;53.148;8.204;2022-10-16T15:12:27;101627.56;;;22.63;39.54
48968;BME280;46511;53.148;8.204;2022-10-16T15:14:59;101625.88;;;22.42;40.23